Terminal Aerodrome Forecast
Issued by NWS

Home | Current Version | Previous Version | Text Only | Print | Product List | Glossary On
Versions: 1 2 3 4 5 6 7 8 9 10 11 12 13 14 15 16 17 18 19 20
000
FTUS43 KMQT 272333
TAFCMX
TAF
KCMX 272333Z 2800/2824 30008KT P6SM SCT100
      TEMPO 2800/2802 P6SM -SHRA BKN100
     FM280200 VRB03KT P6SM SCT100
     FM281000 08004KT 6SM BR SKC
     FM281300 10010KT P6SM SCT120=

USA.gov is the U.S. government's official web portal to all federal, state and local government web resources and services.